Time;durP1;ratioP1;P1;durP2;ratioP2;P2;SDS_P1;SDS_P2;PMS_P1;PMS_P2;Temp;Humidity;BMP_temperature;BMP_pressure;BME280_temperature;BME280_humidity;BME280_pressure;Samples;Min_cycle;Max_cycle;Signal;HPM_P1;HPM_P2
2022/08/12 00:43:35;;;;;;;;;;;;;;;28.86;27.43;99279.97;4514252;31;34500;-91
2022/08/12 00:48:48;;;;;;;;;;;;;;;28.79;26.60;99277.75;4514910;31;34502;-93
2022/08/12 00:51:16;;;;;;;;;;;;;;;29.06;26.95;99281.47;4514336;31;33904;-93
2022/08/12 00:53:43;;;;;;;;;;;;;;;29.07;26.93;99283.16;4513476;31;34161;-92
2022/08/12 00:56:10;;;;;;;;;;;;;;;28.94;27.23;99282.16;4515197;31;34119;-93
2022/08/12 00:58:38;;;;;;;;;;;;;;;29.06;27.21;99284.13;4512066;31;33150;-92
2022/08/12 01:01:06;;;;;;;;;;;;;;;29.06;27.08;99270.78;4513814;31;34044;-93
2022/08/12 01:11:53;;;;;;;;;;;;;;;29.14;26.85;99280.12;4512829;31;34152;-94
2022/08/12 01:14:24;;;;;;;;;;;;;;;29.05;26.59;99279.72;4513432;31;33698;-94
2022/08/12 01:16:51;;;;;;;;;;;;;;;29.08;27.11;99279.53;4514959;31;34334;-92
2022/08/12 01:19:20;;;;;;;;;;;;;;;29.04;27.07;99278.00;4515008;31;33474;-93
2022/08/12 01:22:08;;;;;;;;;;;;;;;28.81;27.33;99276.72;4515053;31;33971;-94
2022/08/12 01:24:54;;;;;;;;;;;;;;;28.87;27.20;99280.84;4513833;31;32718;-94
2022/08/12 01:27:22;;;;;;;;;;;;;;;28.65;27.44;99280.41;4514930;31;34390;-94
2022/08/12 01:29:51;;;;;;;;;;;;;;;28.51;27.59;99287.41;4515046;31;33348;-93
2022/08/12 01:32:18;;;;;;;;;;;;;;;28.67;27.32;99283.84;4514676;31;35078;-92
2022/08/12 01:35:16;;;;;;;;;;;;;;;28.72;27.18;99282.63;4515005;31;35274;-94
2022/08/12 01:37:48;;;;;;;;;;;;;;;28.44;27.72;99274.53;4501388;31;33813;-93
2022/08/12 01:40:15;;;;;;;;;;;;;;;28.35;27.85;99278.56;4513720;31;33784;-93
2022/08/12 01:43:07;;;;;;;;;;;;;;;28.41;27.88;99277.37;4514669;31;33900;-94
2022/08/12 01:45:38;;;;;;;;;;;;;;;28.43;27.80;99280.81;4514801;31;35066;-95
2022/08/12 01:48:14;;;;;;;;;;;;;;;28.39;27.77;99277.47;4512886;31;33651;-93
2022/08/12 01:50:55;;;;;;;;;;;;;;;28.25;28.15;99272.06;4512981;31;32950;-93
2022/08/12 01:53:32;;;;;;;;;;;;;;;28.05;28.31;99276.72;4514481;31;35240;-94
2022/08/12 01:56:17;;;;;;;;;;;;;;;28.05;28.31;99260.75;4513147;31;35245;-94
2022/08/12 02:01:33;;;;;;;;;;;;;;;27.92;28.64;99272.19;4513259;31;33953;-93
2022/08/12 02:13:20;;;;;;;;;;;;;;;27.63;29.07;99259.53;4498657;31;32964;-92
2022/08/12 02:16:10;;;;;;;;;;;;;;;27.64;29.22;99260.38;4498357;31;34214;-90
2022/08/12 02:18:53;;;;;;;;;;;;;;;27.42;29.46;99252.72;4501389;31;34276;-93
2022/08/12 02:21:33;;;;;;;;;;;;;;;27.38;29.61;99253.84;4512926;31;33836;-93
2022/08/12 02:24:00;;;;;;;;;;;;;;;27.48;29.43;99244.41;4499883;31;33089;-93
2022/08/12 02:26:29;;;;;;;;;;;;;;;27.56;29.29;99249.31;4512165;31;34994;-92
2022/08/12 02:28:56;;;;;;;;;;;;;;;27.50;29.35;99246.97;4512800;31;34488;-93
2022/08/12 02:31:23;;;;;;;;;;;;;;;27.59;29.19;99247.34;4514376;31;34146;-93
2022/08/12 02:33:51;;;;;;;;;;;;;;;27.33;29.53;99251.44;4512876;31;33454;-94
2022/08/12 02:36:18;;;;;;;;;;;;;;;27.39;29.41;99244.94;4511353;31;34558;-92
2022/08/12 02:38:46;;;;;;;;;;;;;;;27.16;29.78;99244.38;4513847;31;35213;-93
2022/08/12 02:41:15;;;;;;;;;;;;;;;27.35;29.44;99244.22;4512491;31;34947;-92
2022/08/12 02:43:49;;;;;;;;;;;;;;;27.18;29.87;99241.63;4512606;31;34120;-93
2022/08/12 02:46:18;;;;;;;;;;;;;;;27.07;30.07;99234.19;4512668;31;35080;-93
2022/08/12 02:48:47;;;;;;;;;;;;;;;26.96;30.30;99231.22;4512798;31;34481;-93
2022/08/12 02:51:18;;;;;;;;;;;;;;;27.05;30.03;99230.75;4512857;31;33936;-92
2022/08/12 02:53:46;;;;;;;;;;;;;;;27.16;29.84;99241.72;4513302;31;34197;-93
2022/08/12 02:56:32;;;;;;;;;;;;;;;26.59;30.72;99229.66;4513494;31;34116;-93
2022/08/12 02:59:00;;;;;;;;;;;;;;;27.07;30.15;99230.66;4513703;31;33785;-92
2022/08/12 03:01:31;;;;;;;;;;;;;;;26.98;30.33;99229.38;4513618;31;33815;-93
2022/08/12 03:03:59;;;;;;;;;;;;;;;27.06;30.20;99224.47;4507768;31;34363;-92
2022/08/12 03:06:29;;;;;;;;;;;;;;;26.98;30.50;99223.19;4500030;31;35217;-95
2022/08/12 03:08:57;;;;;;;;;;;;;;;26.99;30.33;99215.09;4498688;31;33840;-93
2022/08/12 03:11:41;;;;;;;;;;;;;;;26.48;30.86;99219.59;4505761;31;34134;-93
2022/08/12 03:14:16;;;;;;;;;;;;;;;26.86;30.63;99222.03;4515771;31;34169;-95
2022/08/12 03:16:46;;;;;;;;;;;;;;;27.08;30.29;99229.72;4515822;31;34235;-95
2022/08/12 03:19:13;;;;;;;;;;;;;;;26.84;30.65;99227.44;4506603;31;33999;-94
2022/08/12 03:21:40;;;;;;;;;;;;;;;26.52;31.17;99225.56;4498441;31;34518;-94
2022/08/12 03:24:28;;;;;;;;;;;;;;;26.69;30.96;99228.22;4511781;31;34748;-93
2022/08/12 03:26:55;;;;;;;;;;;;;;;26.44;31.38;99224.16;4501235;31;34194;-91
2022/08/12 03:29:29;;;;;;;;;;;;;;;26.48;31.03;99221.34;4498685;31;35235;-94
2022/08/12 03:31:59;;;;;;;;;;;;;;;26.69;30.94;99234.41;4498616;31;35028;-93
2022/08/12 03:34:28;;;;;;;;;;;;;;;26.37;31.53;99227.22;4510914;31;33134;-94
2022/08/12 03:36:55;;;;;;;;;;;;;;;26.58;31.05;99230.59;4502728;31;33729;-93
2022/08/12 03:42:10;;;;;;;;;;;;;;;26.06;32.12;99234.03;4502814;31;32478;-93
2022/08/12 04:01:26;;;;;;;;;;;;;;;26.38;31.28;99231.59;4515812;31;34040;-95
2022/08/12 04:03:54;;;;;;;;;;;;;;;26.54;30.96;99231.69;4515677;31;34807;-95
2022/08/12 04:06:23;;;;;;;;;;;;;;;26.65;30.84;99242.62;4514260;31;34724;-93
2022/08/12 04:09:04;;;;;;;;;;;;;;;26.55;30.93;99238.72;4515364;31;34907;-95
2022/08/12 04:14:27;;;;;;;;;;;;;;;26.52;31.05;99237.09;4514995;31;33953;-93
2022/08/12 04:16:55;;;;;;;;;;;;;;;26.67;31.02;99244.28;4515304;31;33733;-95
2022/08/12 04:19:23;;;;;;;;;;;;;;;26.80;30.50;99243.62;4515623;31;34365;-93
2022/08/12 04:21:51;;;;;;;;;;;;;;;27.22;30.08;99245.84;4515258;31;34426;-94
2022/08/12 04:24:35;;;;;;;;;;;;;;;26.88;30.66;99254.72;4515690;31;34949;-93
2022/08/12 04:27:09;;;;;;;;;;;;;;;26.83;30.63;99248.78;4515105;31;34325;-93
2022/08/12 04:29:37;;;;;;;;;;;;;;;26.94;30.53;99254.41;4515098;31;34259;-94
2022/08/12 04:32:24;;;;;;;;;;;;;;;26.60;31.11;99258.84;4513993;31;34258;-95
2022/08/12 04:34:52;;;;;;;;;;;;;;;26.83;31.40;99252.31;4515020;31;34035;-94
2022/08/12 04:37:19;;;;;;;;;;;;;;;27.54;30.29;99262.72;4502302;31;33494;-93
2022/08/12 04:39:47;;;;;;;;;;;;;;;28.07;29.45;99255.31;4508483;31;34180;-94
2022/08/12 04:42:15;;;;;;;;;;;;;;;28.52;28.47;99259.78;4503016;31;34919;-95
2022/08/12 04:44:43;;;;;;;;;;;;;;;28.87;27.81;99259.50;4504625;31;34988;-93
2022/08/12 04:47:11;;;;;;;;;;;;;;;29.43;27.37;99267.63;4515679;31;34209;-95
2022/08/12 04:49:39;;;;;;;;;;;;;;;29.51;27.08;99265.31;4514867;31;34093;-93
2022/08/12 04:52:06;;;;;;;;;;;;;;;29.78;26.63;99270.75;4513088;31;34571;-94
2022/08/12 04:54:34;;;;;;;;;;;;;;;29.94;26.64;99274.12;4514399;31;34106;-95
2022/08/12 04:57:01;;;;;;;;;;;;;;;30.11;26.41;99273.00;4514559;31;33196;-95
2022/08/12 04:59:31;;;;;;;;;;;;;;;30.62;25.80;99275.88;4514929;31;34653;-93
2022/08/12 05:02:15;;;;;;;;;;;;;;;30.37;25.39;99276.66;4499767;31;35086;-93
2022/08/12 05:04:50;;;;;;;;;;;;;;;30.63;25.39;99277.56;4514959;31;34108;-94
2022/08/12 05:07:17;;;;;;;;;;;;;;;31.10;25.24;99281.47;4510992;31;33626;-91
2022/08/12 05:09:45;;;;;;;;;;;;;;;31.35;24.62;99283.34;4514443;31;34750;-92
2022/08/12 05:12:29;;;;;;;;;;;;;;;31.09;25.45;99284.28;4514291;31;34816;-92
2022/08/12 05:14:57;;;;;;;;;;;;;;;31.13;24.86;99280.44;4514161;31;33804;-94
2022/08/12 05:17:25;;;;;;;;;;;;;;;31.22;24.75;99282.47;4514641;31;34250;-89
2022/08/12 05:19:54;;;;;;;;;;;;;;;31.42;23.86;99279.25;4514541;31;34333;-90
2022/08/12 05:22:24;;;;;;;;;;;;;;;31.82;23.47;99279.03;4514842;31;34473;-87
2022/08/12 05:24:52;;;;;;;;;;;;;;;31.56;24.34;99285.44;4513275;31;34214;-92
2022/08/12 05:27:21;;;;;;;;;;;;;;;29.33;26.90;99278.03;4514574;31;32956;-89
2022/08/12 05:29:48;;;;;;;;;;;;;;;29.48;27.24;99278.88;4514480;31;35130;-86
2022/08/12 05:32:35;;;;;;;;;;;;;;;29.83;26.71;99282.00;4503497;31;34386;-87
2022/08/12 05:35:05;;;;;;;;;;;;;;;28.87;27.68;99280.84;4514224;31;35128;-86
2022/08/12 05:37:33;;;;;;;;;;;;;;;27.36;29.93;99283.22;4514358;31;33041;-86
2022/08/12 05:40:02;;;;;;;;;;;;;;;28.01;29.56;99290.31;4514770;31;34324;-85
2022/08/12 05:42:36;;;;;;;;;;;;;;;28.15;28.96;99282.41;4514532;31;34290;-87
2022/08/12 05:45:04;;;;;;;;;;;;;;;27.71;29.95;99288.41;4514978;31;34686;-88
2022/08/12 05:47:32;;;;;;;;;;;;;;;27.65;29.83;99286.94;4514639;31;33254;-85
2022/08/12 05:50:20;;;;;;;;;;;;;;;27.14;30.74;99283.50;4514784;31;34012;-88
2022/08/12 05:52:48;;;;;;;;;;;;;;;27.70;29.49;99286.69;4514574;31;34128;-88
2022/08/12 05:55:19;;;;;;;;;;;;;;;26.44;31.91;99281.75;4514183;31;35215;-86
2022/08/12 05:57:51;;;;;;;;;;;;;;;26.84;31.26;99283.28;4514578;31;34489;-89
2022/08/12 06:00:19;;;;;;;;;;;;;;;26.99;30.68;99284.28;4514851;31;33602;-89
2022/08/12 06:02:46;;;;;;;;;;;;;;;27.28;30.14;99288.09;4514164;31;34396;-84
2022/08/12 06:05:13;;;;;;;;;;;;;;;26.76;31.26;99287.28;4511006;31;34216;-87
2022/08/12 06:07:44;;;;;;;;;;;;;;;27.28;30.92;99295.22;4511424;31;34141;-87
2022/08/12 06:10:32;;;;;;;;;;;;;;;26.93;30.74;99284.59;4513038;31;34269;-91
2022/08/12 06:12:59;;;;;;;;;;;;;;;27.08;30.96;99291.78;4514085;31;35142;-85
2022/08/12 06:15:27;;;;;;;;;;;;;;;27.52;30.18;99293.03;4513959;31;35025;-86
2022/08/12 06:18:04;;;;;;;;;;;;;;;28.71;28.13;99288.88;4514061;31;33873;-86
2022/08/12 06:20:42;;;;;;;;;;;;;;;28.18;29.68;99281.34;4485758;31;34535;-87
2022/08/12 06:23:10;;;;;;;;;;;;;;;28.96;27.89;99285.59;4497103;31;34114;-92
2022/08/12 06:25:37;;;;;;;;;;;;;;;28.37;28.60;99284.69;4505104;31;34490;-93
2022/08/12 06:28:13;;;;;;;;;;;;;;;28.10;29.14;99295.97;4513783;31;34267;-86
2022/08/12 06:30:41;;;;;;;;;;;;;;;28.73;27.77;99296.81;4511393;31;34697;-86
2022/08/12 06:33:08;;;;;;;;;;;;;;;28.90;28.39;99288.62;4513941;31;35210;-86
2022/08/12 06:35:56;;;;;;;;;;;;;;;28.39;28.20;99287.28;4515348;31;34596;-87
2022/08/12 06:38:25;;;;;;;;;;;;;;;28.14;29.13;99294.84;4516280;31;33557;-87
2022/08/12 06:43:40;;;;;;;;;;;;;;;29.03;27.89;99286.13;4514885;31;34367;-86
2022/08/12 06:46:27;;;;;;;;;;;;;;;28.52;28.47;99291.78;4515994;31;35042;-85
2022/08/12 06:48:57;;;;;;;;;;;;;;;29.27;27.78;99292.59;4515992;31;34320;-87
2022/08/12 06:51:25;;;;;;;;;;;;;;;29.26;27.21;99298.06;4516177;31;35060;-86
2022/08/12 06:53:54;;;;;;;;;;;;;;;28.59;28.59;99298.47;4515965;31;35147;-85
2022/08/12 06:56:22;;;;;;;;;;;;;;;28.33;28.42;99285.78;4515647;31;35207;-85
2022/08/12 06:59:10;;;;;;;;;;;;;;;28.67;27.82;99284.69;4515922;31;34149;-89
2022/08/12 07:01:37;;;;;;;;;;;;;;;28.74;27.97;99285.19;4515626;31;35042;-87
2022/08/12 07:04:04;;;;;;;;;;;;;;;27.71;29.88;99287.53;4515965;31;34636;-88
2022/08/12 07:06:54;;;;;;;;;;;;;;;29.32;27.88;99295.00;4515761;31;34791;-90
2022/08/12 07:09:21;;;;;;;;;;;;;;;29.52;27.46;99296.44;4515925;31;33288;-87
2022/08/12 07:12:15;;;;;;;;;;;;;;;30.36;26.53;99293.69;4514609;31;34427;-89
2022/08/12 07:14:43;;;;;;;;;;;;;;;30.79;25.57;99282.78;4515719;31;33731;-85
2022/08/12 07:17:15;;;;;;;;;;;;;;;30.82;25.58;99279.88;4515813;31;34399;-85
2022/08/12 07:19:43;;;;;;;;;;;;;;;30.60;25.72;99290.31;4515741;31;33806;-84
2022/08/12 07:22:12;;;;;;;;;;;;;;;29.66;26.71;99295.56;4515991;31;33824;-92
2022/08/12 07:24:41;;;;;;;;;;;;;;;30.06;26.04;99299.22;4515399;31;34796;-89
2022/08/12 07:27:08;;;;;;;;;;;;;;;29.51;26.91;99295.56;4515816;31;34283;-91
2022/08/12 07:29:35;;;;;;;;;;;;;;;29.37;27.85;99305.41;4515783;31;33445;-91
2022/08/12 07:32:23;;;;;;;;;;;;;;;30.32;26.47;99294.84;4515889;31;33914;-89
2022/08/12 07:34:55;;;;;;;;;;;;;;;29.53;27.28;99301.66;4515720;31;34370;-85
2022/08/12 07:37:22;;;;;;;;;;;;;;;28.23;28.81;99306.81;4515608;31;33959;-87
2022/08/12 07:39:49;;;;;;;;;;;;;;;29.36;27.63;99303.66;4515633;31;33847;-89
2022/08/12 07:42:28;;;;;;;;;;;;;;;30.19;26.94;99302.84;4515404;31;34456;-88
2022/08/12 07:44:55;;;;;;;;;;;;;;;29.47;27.45;99301.19;4515325;31;34193;-88
2022/08/12 07:47:23;;;;;;;;;;;;;;;30.13;26.83;99303.19;4514973;31;34324;-89
2022/08/12 07:49:51;;;;;;;;;;;;;;;30.01;26.59;99302.19;4514528;31;33795;-90
2022/08/12 07:52:37;;;;;;;;;;;;;;;30.14;26.90;99293.34;4515770;31;35425;-88
2022/08/12 07:55:04;;;;;;;;;;;;;;;30.45;26.03;99298.41;4515797;31;35365;-87
2022/08/12 07:57:32;;;;;;;;;;;;;;;30.39;26.51;99300.66;4515242;31;34219;-86
2022/08/12 08:00:04;;;;;;;;;;;;;;;29.85;27.24;99292.56;4515332;31;33466;-90
2022/08/12 08:02:34;;;;;;;;;;;;;;;29.29;27.83;99303.22;4515352;31;34610;-87
2022/08/12 08:05:02;;;;;;;;;;;;;;;30.32;26.10;99297.53;4515591;31;34348;-86
2022/08/12 08:07:30;;;;;;;;;;;;;;;30.90;25.95;99290.91;4515645;31;34099;-87
2022/08/12 08:09:58;;;;;;;;;;;;;;;30.05;27.51;99298.34;4515499;31;33655;-88
2022/08/12 08:15:14;;;;;;;;;;;;;;;29.23;28.14;99301.78;4514271;31;34324;-85
2022/08/12 08:17:56;;;;;;;;;;;;;;;30.12;27.08;99297.94;4515141;31;34396;-86
2022/08/12 08:20:27;;;;;;;;;;;;;;;30.75;26.67;99292.81;4515202;31;34103;-87
2022/08/12 08:22:55;;;;;;;;;;;;;;;31.23;25.52;99290.38;4515537;31;34994;-86
2022/08/12 08:25:29;;;;;;;;;;;;;;;30.43;26.38;99296.81;4515427;31;34045;-86
2022/08/12 08:28:04;;;;;;;;;;;;;;;29.25;27.57;99299.03;4514206;31;34351;-86
2022/08/12 08:30:32;;;;;;;;;;;;;;;29.95;27.90;99291.87;4515416;31;33814;-86
2022/08/12 08:32:59;;;;;;;;;;;;;;;30.05;27.52;99295.69;4515283;31;33948;-90
2022/08/12 08:35:26;;;;;;;;;;;;;;;30.62;27.11;99291.06;4515101;31;35130;-93
2022/08/12 08:38:13;;;;;;;;;;;;;;;30.24;27.37;99289.16;4516008;31;34341;-91
2022/08/12 08:44:05;;;;;;;;;;;;;;;30.67;26.71;99280.91;4504819;31;34276;-93
2022/08/12 08:46:36;;;;;;;;;;;;;;;30.76;25.80;99280.28;4516089;31;34208;-95
2022/08/12 08:49:04;;;;;;;;;;;;;;;30.01;27.10;99287.97;4514084;31;34210;-94
2022/08/12 08:51:32;;;;;;;;;;;;;;;30.76;25.74;99285.66;4514223;31;33308;-94
2022/08/12 08:53:59;;;;;;;;;;;;;;;31.64;25.41;99286.63;4515271;31;34966;-92
2022/08/12 08:56:28;;;;;;;;;;;;;;;31.22;25.83;99282.47;4514815;31;35185;-93
2022/08/12 08:58:56;;;;;;;;;;;;;;;30.99;25.07;99284.09;4513549;31;34254;-92
2022/08/12 09:01:26;;;;;;;;;;;;;;;30.38;26.77;99282.88;4515001;31;33199;-94
2022/08/12 09:04:04;;;;;;;;;;;;;;;30.56;25.93;99276.28;4514757;31;34951;-89
2022/08/12 09:06:55;;;;;;;;;;;;;;;29.82;27.14;99269.59;4515242;31;34231;-90
2022/08/12 09:09:23;;;;;;;;;;;;;;;30.73;26.65;99272.47;4513826;31;35003;-92
2022/08/12 09:14:53;;;;;;;;;;;;;;;31.41;25.43;99269.50;4514848;31;35103;-83
2022/08/12 09:17:21;;;;;;;;;;;;;;;30.96;26.66;99268.22;4510397;31;35338;-92
2022/08/12 09:19:48;;;;;;;;;;;;;;;30.92;25.34;99269.41;4507423;31;34457;-85
2022/08/12 09:22:36;;;;;;;;;;;;;;;31.93;24.20;99262.19;4499969;31;33809;-92
2022/08/12 09:25:05;;;;;;;;;;;;;;;31.78;24.47;99263.28;4507494;31;34203;-88
2022/08/12 09:27:35;;;;;;;;;;;;;;;32.55;23.52;99263.84;4508230;31;34631;-85
2022/08/12 09:30:23;;;;;;;;;;;;;;;31.72;24.03;99262.78;4498152;31;34313;-84
2022/08/12 09:33:08;;;;;;;;;;;;;;;31.30;24.62;99261.37;4507440;31;33489;-83
2022/08/12 09:35:46;;;;;;;;;;;;;;;32.00;23.92;99259.91;4514500;31;34389;-83
2022/08/12 09:38:32;;;;;;;;;;;;;;;32.12;23.06;99246.44;4514766;31;35199;-81
2022/08/12 09:41:01;;;;;;;;;;;;;;;30.67;25.24;99256.81;4514645;31;34377;-90
2022/08/12 09:46:56;;;;;;;;;;;;;;;32.27;23.74;99236.38;4498713;31;34449;-84
2022/08/12 09:49:26;;;;;;;;;;;;;;;32.28;23.28;99237.22;4499165;31;35129;-84
2022/08/12 09:51:53;;;;;;;;;;;;;;;32.61;22.77;99240.06;4498749;31;34758;-84
2022/08/12 09:54:24;;;;;;;;;;;;;;;31.55;24.07;99251.56;4508308;31;33463;-84
2022/08/12 09:57:07;;;;;;;;;;;;;;;32.22;23.24;99244.78;4498983;31;34203;-87
2022/08/12 09:59:55;;;;;;;;;;;;;;;31.71;24.11;99245.00;4506284;31;34334;-84
2022/08/12 10:03:02;;;;;;;;;;;;;;;31.74;23.96;99235.84;4498584;31;34080;-82
2022/08/12 10:05:35;;;;;;;;;;;;;;;32.04;24.14;99245.31;4498678;31;34263;-82
2022/08/12 10:08:23;;;;;;;;;;;;;;;32.78;23.32;99240.59;4498506;31;34179;-85
2022/08/12 10:13:47;;;;;;;;;;;;;;;32.95;23.55;99229.41;4511115;31;34781;-83
2022/08/12 10:16:18;;;;;;;;;;;;;;;32.58;23.30;99228.69;4498628;31;34574;-83
2022/08/12 10:18:49;;;;;;;;;;;;;;;32.30;23.42;99220.06;4503330;31;34417;-84
2022/08/12 10:21:22;;;;;;;;;;;;;;;31.59;23.90;99226.25;4514211;31;34512;-83
2022/08/12 10:24:02;;;;;;;;;;;;;;;31.79;23.51;99230.19;4514270;31;34678;-88
2022/08/12 10:32:22;;;;;;;;;;;;;;;32.59;23.79;99217.00;4513214;31;35403;-82
2022/08/12 10:35:12;;;;;;;;;;;;;;;33.25;22.07;99211.81;4513680;31;34293;-85
2022/08/12 10:37:43;;;;;;;;;;;;;;;33.35;21.67;99210.97;4511504;31;32112;-83
2022/08/12 10:40:30;;;;;;;;;;;;;;;32.61;22.68;99207.00;4497792;31;33894;-83
2022/08/12 10:45:50;;;;;;;;;;;;;;;32.73;23.70;99206.03;4512904;31;34131;-89
2022/08/12 10:48:19;;;;;;;;;;;;;;;32.14;24.02;99209.66;4513818;31;33373;-82
2022/08/12 10:51:03;;;;;;;;;;;;;;;32.39;22.88;99205.97;4513007;31;34963;-85
2022/08/12 10:53:54;;;;;;;;;;;;;;;32.85;23.46;99197.03;4513081;31;35323;-84
2022/08/12 10:56:31;;;;;;;;;;;;;;;32.01;23.60;99203.47;4511582;31;34357;-84
2022/08/12 10:59:04;;;;;;;;;;;;;;;33.09;22.33;99191.56;4511423;31;33575;-83
2022/08/12 11:01:36;;;;;;;;;;;;;;;33.04;22.67;99195.63;4508634;31;34787;-83
2022/08/12 11:04:24;;;;;;;;;;;;;;;32.89;22.23;99200.34;4513566;31;34488;-84
2022/08/12 11:07:12;;;;;;;;;;;;;;;32.45;23.46;99194.75;4511781;31;35215;-83
2022/08/12 11:09:59;;;;;;;;;;;;;;;32.12;23.65;99190.12;4512735;31;33689;-84
2022/08/12 11:12:29;;;;;;;;;;;;;;;32.90;22.41;99189.47;4507609;31;34358;-84
2022/08/12 11:15:22;;;;;;;;;;;;;;;32.51;22.97;99193.44;4507837;31;35166;-86
2022/08/12 11:18:09;;;;;;;;;;;;;;;31.92;23.08;99197.00;4504451;31;34307;-83
2022/08/12 11:20:44;;;;;;;;;;;;;;;32.72;22.50;99188.22;4503994;31;33210;-85
2022/08/12 11:23:11;;;;;;;;;;;;;;;32.53;22.06;99182.59;4503450;31;35001;-85
2022/08/12 11:25:58;;;;;;;;;;;;;;;32.41;22.46;99182.56;4503216;31;34218;-85
2022/08/12 11:28:32;;;;;;;;;;;;;;;32.85;22.98;99180.06;4514465;31;33842;-85
2022/08/12 11:31:03;;;;;;;;;;;;;;;32.19;23.14;99180.63;4505966;31;33576;-82
2022/08/12 11:33:31;;;;;;;;;;;;;;;33.30;22.32;99183.63;4508873;31;35033;-81
2022/08/12 11:36:18;;;;;;;;;;;;;;;32.00;22.47;99179.47;4509718;31;34490;-89
2022/08/12 11:38:49;;;;;;;;;;;;;;;32.27;22.99;99174.69;4506196;31;33942;-82
2022/08/12 11:41:17;;;;;;;;;;;;;;;32.59;22.42;99172.22;4514942;31;31943;-84
2022/08/12 11:43:59;;;;;;;;;;;;;;;32.28;22.80;99168.38;4512574;31;34369;-82
2022/08/12 11:46:46;;;;;;;;;;;;;;;32.19;22.40;99177.09;4503191;31;34643;-85
2022/08/12 11:49:22;;;;;;;;;;;;;;;32.32;22.50;99175.19;4512335;31;34913;-84
2022/08/12 11:52:01;;;;;;;;;;;;;;;32.69;21.83;99172.34;4515026;31;34146;-83
2022/08/12 11:54:29;;;;;;;;;;;;;;;33.04;20.84;99172.28;4514369;31;35015;-83
2022/08/12 11:57:00;;;;;;;;;;;;;;;33.15;20.79;99176.81;4503028;31;34432;-88
2022/08/12 11:59:29;;;;;;;;;;;;;;;32.65;20.96;99170.87;4512005;31;35252;-83
2022/08/12 12:02:17;;;;;;;;;;;;;;;31.26;23.11;99174.16;4515688;31;33850;-84
2022/08/12 12:04:47;;;;;;;;;;;;;;;32.24;22.95;99164.22;4503977;31;35538;-83
2022/08/12 12:07:22;;;;;;;;;;;;;;;32.39;23.56;99165.72;4499558;31;34205;-85
2022/08/12 12:10:13;;;;;;;;;;;;;;;32.25;22.81;99173.97;4499419;31;34954;-85
2022/08/12 12:12:41;;;;;;;;;;;;;;;32.57;22.46;99174.16;4502887;31;33220;-82
2022/08/12 12:15:17;;;;;;;;;;;;;;;33.30;21.95;99164.81;4512210;31;34497;-86
2022/08/12 12:18:04;;;;;;;;;;;;;;;33.55;21.96;99161.00;4514422;31;35287;-85
2022/08/12 12:20:33;;;;;;;;;;;;;;;33.41;21.98;99159.41;4515082;31;33874;-83
2022/08/12 12:23:00;;;;;;;;;;;;;;;32.88;22.45;99166.38;4513353;31;33817;-87
2022/08/12 12:25:27;;;;;;;;;;;;;;;32.92;22.72;99157.97;4508417;31;34231;-84
2022/08/12 12:28:15;;;;;;;;;;;;;;;32.40;22.45;99163.91;4503973;31;34269;-85
2022/08/12 12:31:02;;;;;;;;;;;;;;;33.49;22.01;99160.63;4513266;31;33422;-87
2022/08/12 12:33:30;;;;;;;;;;;;;;;33.47;22.23;99157.22;4511153;31;33529;-85
2022/08/12 12:36:17;;;;;;;;;;;;;;;31.60;24.45;99161.84;4499440;31;35263;-86
2022/08/12 12:38:58;;;;;;;;;;;;;;;32.52;23.48;99152.22;4498242;31;34688;-85
2022/08/12 12:41:27;;;;;;;;;;;;;;;32.42;24.39;99144.00;4503023;31;34215;-86
2022/08/12 12:44:14;;;;;;;;;;;;;;;32.89;23.56;99142.09;4515242;31;33544;-86
2022/08/12 12:47:01;;;;;;;;;;;;;;;33.81;22.03;99140.00;4505090;31;33822;-82
2022/08/12 12:49:31;;;;;;;;;;;;;;;33.37;22.06;99144.50;4499960;31;34633;-83
2022/08/12 12:51:58;;;;;;;;;;;;;;;33.28;21.63;99136.34;4505361;31;34467;-82
2022/08/12 12:54:53;;;;;;;;;;;;;;;31.99;23.88;99138.41;4503567;31;33795;-84
2022/08/12 12:57:23;;;;;;;;;;;;;;;32.11;24.38;99125.88;4509513;31;33131;-82
2022/08/12 13:00:13;;;;;;;;;;;;;;;32.64;23.54;99128.91;4506084;31;34161;-88
2022/08/12 13:02:49;;;;;;;;;;;;;;;33.18;22.75;99130.88;4505591;31;34942;-84
2022/08/12 13:05:24;;;;;;;;;;;;;;;32.23;23.72;99119.56;4503504;31;34199;-85
2022/08/12 13:07:55;;;;;;;;;;;;;;;33.13;23.56;99125.03;4505359;31;34849;-82
2022/08/12 13:10:28;;;;;;;;;;;;;;;33.21;21.78;99124.41;4504345;31;34750;-83
2022/08/12 13:12:57;;;;;;;;;;;;;;;33.47;20.20;99111.53;4502148;31;34230;-85
2022/08/12 13:15:48;;;;;;;;;;;;;;;34.09;18.64;99108.09;4504872;31;33568;-84
2022/08/12 13:18:21;;;;;;;;;;;;;;;34.33;18.58;99100.63;4503991;31;34218;-87
2022/08/12 13:20:56;;;;;;;;;;;;;;;33.75;20.12;99107.38;4504281;31;33399;-86
2022/08/12 13:23:27;;;;;;;;;;;;;;;33.00;21.17;99100.13;4507578;31;34918;-84
2022/08/12 13:26:03;;;;;;;;;;;;;;;33.17;20.10;99110.34;4507708;31;33584;-83
2022/08/12 13:28:31;;;;;;;;;;;;;;;33.55;19.82;99107.22;4508842;31;35062;-90
2022/08/12 13:30:58;;;;;;;;;;;;;;;32.59;20.10;99101.59;4505413;31;35234;-86
2022/08/12 13:33:26;;;;;;;;;;;;;;;32.17;20.76;99112.84;4507032;31;34267;-83
2022/08/12 13:35:59;;;;;;;;;;;;;;;31.73;21.53;99100.13;4511039;31;33676;-86
2022/08/12 13:38:34;;;;;;;;;;;;;;;33.16;21.06;99095.22;4509013;31;34365;-81
2022/08/12 13:41:02;;;;;;;;;;;;;;;32.99;20.83;99101.97;4508754;31;35484;-84
2022/08/12 13:43:30;;;;;;;;;;;;;;;32.64;21.33;99102.06;4503420;31;35064;-80
2022/08/12 13:46:08;;;;;;;;;;;;;;;33.22;21.75;99094.72;4512869;31;33533;-81
2022/08/12 13:48:42;;;;;;;;;;;;;;;33.72;20.64;99089.69;4511979;31;34874;-80
2022/08/12 13:51:12;;;;;;;;;;;;;;;33.51;21.01;99096.88;4514195;31;34100;-80
2022/08/12 13:53:39;;;;;;;;;;;;;;;33.57;21.73;99091.00;4505857;31;34481;-88
2022/08/12 13:56:31;;;;;;;;;;;;;;;34.25;20.91;99095.06;4505708;31;33094;-81
2022/08/12 13:59:02;;;;;;;;;;;;;;;33.12;22.03;99083.03;4503103;31;34282;-82
2022/08/12 14:01:30;;;;;;;;;;;;;;;33.33;21.17;99091.12;4502169;31;34347;-79
2022/08/12 14:04:03;;;;;;;;;;;;;;;32.27;22.73;99087.97;4506152;31;34307;-83
2022/08/12 14:06:30;;;;;;;;;;;;;;;33.04;21.33;99091.72;4505021;31;33031;-78
2022/08/12 14:08:59;;;;;;;;;;;;;;;33.54;21.16;99080.50;4505598;31;32791;-82
2022/08/12 14:11:43;;;;;;;;;;;;;;;32.96;22.79;99087.91;4507233;31;35382;-83
2022/08/12 14:14:26;;;;;;;;;;;;;;;33.45;22.34;99081.22;4507448;31;33985;-82
2022/08/12 14:17:01;;;;;;;;;;;;;;;33.58;21.61;99080.09;4507255;31;33560;-83
2022/08/12 14:19:32;;;;;;;;;;;;;;;32.51;22.33;99079.88;4509278;31;35250;-85
2022/08/12 14:22:12;;;;;;;;;;;;;;;33.67;21.98;99070.41;4512356;31;34178;-85
2022/08/12 14:24:41;;;;;;;;;;;;;;;33.98;21.05;99070.47;4512779;31;34955;-84
2022/08/12 14:27:09;;;;;;;;;;;;;;;34.04;20.92;99064.59;4514219;31;33604;-83
2022/08/12 14:29:40;;;;;;;;;;;;;;;34.33;20.05;99065.63;4506673;31;34208;-83
2022/08/12 14:32:33;;;;;;;;;;;;;;;32.92;20.97;99069.38;4511397;31;34089;-81
2022/08/12 14:35:03;;;;;;;;;;;;;;;33.11;21.56;99060.69;4513370;31;34495;-81
2022/08/12 14:37:31;;;;;;;;;;;;;;;33.63;20.93;99061.72;4510177;31;34393;-80
2022/08/12 14:40:18;;;;;;;;;;;;;;;33.92;20.64;99054.88;4512651;31;34194;-80
2022/08/12 14:42:54;;;;;;;;;;;;;;;34.22;20.07;99054.94;4500106;31;34178;-83
2022/08/12 14:45:23;;;;;;;;;;;;;;;34.64;19.92;99046.81;4507863;31;33088;-80
2022/08/12 14:48:11;;;;;;;;;;;;;;;34.71;19.35;99047.13;4507952;31;31588;-80
2022/08/12 14:50:38;;;;;;;;;;;;;;;34.95;18.86;99038.66;4511827;31;34209;-79
2022/08/12 14:53:28;;;;;;;;;;;;;;;34.33;19.37;99035.19;4513669;31;34543;-80
2022/08/12 14:56:16;;;;;;;;;;;;;;;32.97;20.82;99044.00;4503864;31;34937;-80
2022/08/12 15:01:50;;;;;;;;;;;;;;;32.96;21.06;99037.78;4515480;31;34575;-81
2022/08/12 15:04:24;;;;;;;;;;;;;;;33.66;20.08;99033.75;4512592;31;33548;-76
2022/08/12 15:06:53;;;;;;;;;;;;;;;33.56;20.30;99027.44;4511948;31;34292;-78
2022/08/12 15:09:21;;;;;;;;;;;;;;;32.90;20.54;99019.44;4514669;31;33583;-78
2022/08/12 15:11:56;;;;;;;;;;;;;;;33.70;20.02;99019.06;4514301;31;34323;-78
2022/08/12 15:14:30;;;;;;;;;;;;;;;34.28;19.74;99011.34;4516264;31;34628;-79
2022/08/12 15:16:58;;;;;;;;;;;;;;;34.17;19.75;99016.81;4509223;31;34889;-81
2022/08/12 15:19:28;;;;;;;;;;;;;;;34.01;20.52;99016.44;4500446;31;34004;-81